Terminal Aerodrome Forecast
Issued by NWS Wakefield, VA

Home | Current Version | Previous Version | Text Only | Print | Product List | Glossary On
Versions: 1 2 3 4 5 6 7 8 9 10 11 12 13 14 15 16 17 18 19 20 21 22 23 24 25 26 27 28 29
000
FTUS41 KAKQ 010539
TAFRIC
TAF
KRIC 010539Z 0106/0206 VRB04KT P6SM FEW040
     FM010900 00000KT 2SM BR SCT004
     FM011300 06007KT P6SM SCT020 BKN035
     FM011700 08009KT P6SM VCSH BKN050 BKN120
     FM012300 08006KT P6SM SCT020 BKN120
     FM020400 VRB03KT 4SM BR BKN004 OVC010=

USA.gov is the U.S. government's official web portal to all federal, state and local government web resources and services.